Angel Fire, New Mexico
Current Conditions -  °F | °C
As of 4:55 PM on Wednesday 22 Oct 2014 (Local Time) from KAXX Reporting Station
Scattered Clouds Scattered Clouds  
Wind Chill: 56°   Ceiling: Unl
Heat Index: 56°   Visibility: 10mi
Dew Point: 31°   Wind: 5mph
Humidity: 39%   Direction: 270°W
Pressure: 30.26"   Gusts: NA
Location:  36.39°N, 105.29°W
Report Text: KAXX 222255Z AUTO 27004KT 10SM SCT070 13/00 A3026 RMK AO2 T01321004
Loading
Personal Weather Stations






























Interactive Weather Map New forecast layout! Learn more

10-Day Weather Forecast

Advertisements
Track Severe Weather on mobile